Time;durP1;ratioP1;P1;durP2;ratioP2;P2;SDS_P1;SDS_P2;PMS_P1;PMS_P2;Temp;Humidity;BMP_temperature;BMP_pressure;BME280_temperature;BME280_humidity;BME280_pressure;Samples;Min_cycle;Max_cycle;Signal;HPM_P1;HPM_P2
2023/06/25 00:02:29;;;;;;;8.02;3.70;;;18.00;99.90;;;;;;4975469;28;20113;-75
2023/06/25 00:05:15;;;;;;;5.50;3.17;;;18.00;99.90;;;;;;4993598;28;20146;-76
2023/06/25 00:08:01;;;;;;;7.22;3.20;;;18.00;99.90;;;;;;4975051;28;20090;-77
2023/06/25 00:10:47;;;;;;;4.78;2.78;;;17.90;99.90;;;;;;4993487;28;20482;-75
2023/06/25 00:13:33;;;;;;;7.70;3.70;;;17.90;99.90;;;;;;4975326;28;20086;-76
2023/06/25 00:16:19;;;;;;;9.80;3.58;;;17.90;99.90;;;;;;4992855;28;20062;-78
2023/06/25 00:19:05;;;;;;;6.50;3.72;;;17.80;99.90;;;;;;4975742;28;20054;-76
2023/06/25 00:21:51;;;;;;;6.50;3.97;;;17.80;99.90;;;;;;4991957;28;20157;-79
2023/06/25 00:24:40;;;;;;;7.80;4.20;;;17.80;99.90;;;;;;4992352;28;20129;-80
2023/06/25 00:27:26;;;;;;;9.57;4.28;;;17.80;99.90;;;;;;4993365;28;20082;-75
2023/06/25 00:30:17;;;;;;;8.18;4.13;;;17.80;99.90;;;;;;4975224;28;20054;-77
2023/06/25 00:33:03;;;;;;;6.90;3.58;;;17.80;99.90;;;;;;4993401;28;20486;-79
2023/06/25 00:35:55;;;;;;;5.75;3.42;;;17.80;99.90;;;;;;4975687;28;20051;-77
2023/06/25 00:38:42;;;;;;;6.57;3.33;;;17.80;99.90;;;;;;4992335;28;20046;-76
2023/06/25 00:41:28;;;;;;;6.03;3.10;;;17.80;99.90;;;;;;4974073;28;20058;-79
2023/06/25 00:44:14;;;;;;;6.75;3.20;;;17.80;99.90;;;;;;4993347;28;20050;-79
2023/06/25 00:47:00;;;;;;;8.73;3.17;;;17.80;99.90;;;;;;4991577;28;20091;-80
2023/06/25 00:49:47;;;;;;;6.63;3.35;;;17.80;99.90;;;;;;4990442;28;20047;-77
2023/06/25 00:52:33;;;;;;;6.35;3.53;;;17.70;99.90;;;;;;4993195;28;20116;-80
2023/06/25 00:55:20;;;;;;;5.28;3.33;;;17.70;99.90;;;;;;4992420;28;20054;-78
2023/06/25 00:58:07;;;;;;;5.82;3.20;;;17.70;99.90;;;;;;4961687;28;20071;-76
2023/06/25 01:00:55;;;;;;;8.85;3.22;;;17.70;99.90;;;;;;4977486;28;20065;-76
2023/06/25 01:03:46;;;;;;;5.47;2.78;;;17.70;99.90;;;;;;4991283;28;20054;-77
2023/06/25 01:06:40;;;;;;;6.65;4.18;;;17.70;99.90;;;;;;4975094;28;20133;-76
2023/06/25 01:09:27;;;;;;;7.25;4.07;;;17.70;99.90;;;;;;4991404;28;20053;-77
2023/06/25 01:12:14;;;;;;;7.28;4.05;;;17.70;99.90;;;;;;4991370;28;20180;-80
2023/06/25 01:15:01;;;;;;;8.02;4.55;;;17.70;99.90;;;;;;4974421;28;20081;-79
2023/06/25 01:17:48;;;;;;;6.95;3.70;;;17.60;99.90;;;;;;4974122;28;20090;-79
2023/06/25 01:20:38;;;;;;;8.52;5.03;;;17.60;99.90;;;;;;4991138;28;20141;-77
2023/06/25 01:23:24;;;;;;;8.50;4.45;;;17.60;99.90;;;;;;4990806;28;20059;-76
2023/06/25 01:26:10;;;;;;;7.82;4.03;;;17.60;99.90;;;;;;4990838;28;20100;-77
2023/06/25 01:28:56;;;;;;;13.20;5.43;;;17.50;99.90;;;;;;4991094;28;20050;-77
2023/06/25 01:31:42;;;;;;;6.95;4.63;;;17.50;99.90;;;;;;4991780;28;20117;-78
2023/06/25 01:34:28;;;;;;;8.90;5.30;;;17.40;99.90;;;;;;4975273;28;20058;-78
2023/06/25 01:37:17;;;;;;;9.35;5.55;;;17.50;99.90;;;;;;4992262;28;20057;-78
2023/06/25 01:40:07;;;;;;;9.10;5.47;;;17.40;99.90;;;;;;4973241;28;20065;-78
2023/06/25 01:42:53;;;;;;;9.23;5.30;;;17.40;99.90;;;;;;4991019;28;20052;-78
2023/06/25 01:45:40;;;;;;;10.55;5.78;;;17.30;99.90;;;;;;4991262;28;20150;-77
2023/06/25 01:48:26;;;;;;;11.70;6.03;;;17.30;99.90;;;;;;4978585;28;20053;-77
2023/06/25 01:51:12;;;;;;;10.88;5.60;;;17.30;99.90;;;;;;4973185;28;20050;-80
2023/06/25 01:53:59;;;;;;;10.98;6.70;;;17.30;99.90;;;;;;4960341;28;20142;-80
2023/06/25 01:56:45;;;;;;;12.20;6.78;;;17.30;99.90;;;;;;4978018;28;20050;-80
2023/06/25 01:59:34;;;;;;;15.73;7.45;;;17.30;99.90;;;;;;4976683;28;20125;-79
2023/06/25 02:02:20;;;;;;;10.77;5.45;;;17.20;99.90;;;;;;4960818;28;20086;-76
2023/06/25 02:05:06;;;;;;;11.38;6.90;;;17.20;99.90;;;;;;4973442;28;20064;-77
2023/06/25 02:07:52;;;;;;;10.48;6.07;;;17.20;99.90;;;;;;4973818;28;20053;-79
2023/06/25 02:10:38;;;;;;;11.02;6.35;;;17.20;99.90;;;;;;4991285;28;20054;-78
2023/06/25 02:13:24;;;;;;;12.77;7.05;;;17.20;99.90;;;;;;4990858;28;20422;-77
2023/06/25 02:16:11;;;;;;;10.48;6.68;;;17.20;99.90;;;;;;4990016;28;20046;-77
2023/06/25 02:18:57;;;;;;;15.88;6.07;;;17.10;99.90;;;;;;4990230;28;20050;-76
2023/06/25 02:21:43;;;;;;;11.65;5.70;;;17.10;99.90;;;;;;4989295;28;20055;-78
2023/06/25 02:24:29;;;;;;;10.30;4.95;;;17.10;99.90;;;;;;4990587;28;20133;-77
2023/06/25 02:27:16;;;;;;;9.48;5.20;;;17.10;99.90;;;;;;4989811;28;20061;-75
2023/06/25 02:30:02;;;;;;;8.18;4.53;;;17.10;99.90;;;;;;4990772;28;20129;-78
2023/06/25 02:32:49;;;;;;;12.10;5.38;;;17.00;99.90;;;;;;4973053;28;20077;-78
2023/06/25 02:35:35;;;;;;;9.00;4.40;;;17.00;99.90;;;;;;4990969;28;20560;-79
2023/06/25 02:38:21;;;;;;;10.88;4.82;;;17.00;99.90;;;;;;4989919;28;20058;-78
2023/06/25 02:41:07;;;;;;;7.63;4.60;;;16.90;99.90;;;;;;4991664;28;20053;-79
2023/06/25 02:43:53;;;;;;;10.98;4.80;;;16.90;99.90;;;;;;4973129;28;20526;-78
2023/06/25 02:46:39;;;;;;;7.57;4.55;;;16.90;99.90;;;;;;4989534;28;20056;-76
2023/06/25 02:49:25;;;;;;;8.27;4.40;;;16.90;99.90;;;;;;4975704;28;20478;-78
2023/06/25 02:52:11;;;;;;;11.80;4.55;;;16.90;99.90;;;;;;4990644;28;20081;-78
2023/06/25 02:54:58;;;;;;;11.57;4.97;;;16.80;99.90;;;;;;4989728;28;20050;-78
2023/06/25 02:57:44;;;;;;;9.23;4.50;;;16.80;99.90;;;;;;4990646;28;20062;-77
2023/06/25 03:00:30;;;;;;;10.27;6.00;;;16.90;99.90;;;;;;4976070;28;20494;-78
2023/06/25 03:03:16;;;;;;;11.30;6.50;;;16.90;99.90;;;;;;4946378;28;20061;-77
2023/06/25 03:06:02;;;;;;;8.98;5.28;;;16.90;99.90;;;;;;4989300;28;20050;-80
2023/06/25 03:08:48;;;;;;;9.20;4.63;;;16.90;99.90;;;;;;4972225;28;20488;-76
2023/06/25 03:11:34;;;;;;;8.52;5.28;;;16.90;99.90;;;;;;4972077;28;20055;-76
2023/06/25 03:14:21;;;;;;;9.10;5.18;;;16.90;99.90;;;;;;4992969;28;20057;-75
2023/06/25 03:17:07;;;;;;;8.55;5.00;;;16.90;99.90;;;;;;4993351;28;20065;-79
2023/06/25 03:19:53;;;;;;;11.00;5.90;;;16.90;99.90;;;;;;4993697;28;20054;-75
2023/06/25 03:22:39;;;;;;;10.93;6.10;;;16.90;99.90;;;;;;4992945;28;20458;-77
2023/06/25 03:25:26;;;;;;;12.98;7.25;;;16.90;99.90;;;;;;4993529;28;20069;-75
2023/06/25 03:28:12;;;;;;;9.73;6.53;;;17.00;99.90;;;;;;4993451;28;20056;-76
2023/06/25 03:30:58;;;;;;;12.65;7.32;;;17.00;99.90;;;;;;4993108;28;20065;-76
2023/06/25 03:33:44;;;;;;;15.20;8.70;;;17.00;99.90;;;;;;4993081;28;20086;-76
2023/06/25 03:36:30;;;;;;;15.40;9.40;;;17.10;99.90;;;;;;4978330;28;20050;-76
2023/06/25 03:39:16;;;;;;;13.02;8.07;;;17.10;99.90;;;;;;4993774;28;20058;-75
2023/06/25 03:42:02;;;;;;;10.38;7.30;;;17.20;99.90;;;;;;4992670;28;20097;-75
2023/06/25 03:44:54;;;;;;;12.10;6.97;;;17.20;99.90;;;;;;4994147;28;20057;-77
2023/06/25 03:47:41;;;;;;;14.23;8.50;;;17.20;99.90;;;;;;4976859;28;20050;-80
2023/06/25 03:50:27;;;;;;;12.02;6.57;;;17.20;99.90;;;;;;4994341;28;20050;-76
2023/06/25 03:53:13;;;;;;;10.77;6.35;;;17.20;99.90;;;;;;4992420;28;20495;-77
2023/06/25 03:55:59;;;;;;;12.70;8.32;;;17.20;99.90;;;;;;4976051;28;20054;-76
2023/06/25 03:58:45;;;;;;;13.38;7.97;;;17.20;99.90;;;;;;4994514;28;20503;-77
2023/06/25 04:01:31;;;;;;;12.73;7.20;;;17.20;99.90;;;;;;4992426;28;20050;-76
2023/06/25 04:04:18;;;;;;;16.00;8.93;;;17.20;99.90;;;;;;4992762;28;20049;-75
2023/06/25 04:07:04;;;;;;;14.20;8.45;;;17.20;99.90;;;;;;4992456;28;20450;-75
2023/06/25 04:09:50;;;;;;;13.38;7.45;;;17.20;99.90;;;;;;4992824;28;20129;-78
2023/06/25 04:12:36;;;;;;;14.57;7.22;;;17.20;99.90;;;;;;4961985;28;20149;-78
2023/06/25 04:15:22;;;;;;;12.50;7.68;;;17.30;99.90;;;;;;4992754;28;20054;-76
2023/06/25 04:18:08;;;;;;;18.02;9.70;;;17.30;99.90;;;;;;4975694;28;20487;-78
2023/06/25 04:20:55;;;;;;;17.30;8.82;;;17.30;99.90;;;;;;4978975;28;20414;-80
2023/06/25 04:23:41;;;;;;;10.45;7.18;;;17.40;99.90;;;;;;4975459;28;20065;-78
2023/06/25 04:26:27;;;;;;;14.85;7.55;;;17.40;99.90;;;;;;4978348;28;20054;-76
2023/06/25 04:29:13;;;;;;;11.93;7.53;;;17.50;99.90;;;;;;4993233;28;20046;-76
2023/06/25 04:32:01;;;;;;;11.98;7.55;;;17.60;99.90;;;;;;4992474;28;20055;-76
2023/06/25 04:34:47;;;;;;;11.38;7.45;;;17.60;99.90;;;;;;4992827;28;20050;-75
2023/06/25 04:37:34;;;;;;;14.63;8.80;;;17.70;99.90;;;;;;4993267;28;20058;-77
2023/06/25 04:40:20;;;;;;;13.15;7.60;;;17.80;99.90;;;;;;4978136;28;20058;-77
2023/06/25 04:43:06;;;;;;;13.52;8.23;;;17.90;99.90;;;;;;4974989;28;20062;-77
2023/06/25 04:45:52;;;;;;;14.18;8.10;;;17.90;99.90;;;;;;4992562;28;20054;-77
2023/06/25 04:48:38;;;;;;;13.88;8.18;;;18.00;99.90;;;;;;4974218;28;20117;-77
2023/06/25 04:51:24;;;;;;;13.45;8.70;;;18.10;99.90;;;;;;4984008;28;20419;-76
2023/06/25 04:54:10;;;;;;;14.05;8.63;;;18.20;99.90;;;;;;4991972;28;20104;-76
2023/06/25 04:56:56;;;;;;;16.00;10.43;;;18.20;99.90;;;;;;4973589;28;20042;-77
2023/06/25 04:59:42;;;;;;;16.63;10.30;;;18.30;99.90;;;;;;4962861;28;20061;-81
2023/06/25 05:02:28;;;;;;;14.38;9.60;;;18.40;99.90;;;;;;4994341;28;20415;-79
2023/06/25 05:05:14;;;;;;;14.23;9.38;;;18.40;99.90;;;;;;4991202;28;20055;-76
2023/06/25 05:08:01;;;;;;;17.33;10.15;;;18.50;99.90;;;;;;4974692;28;20058;-79
2023/06/25 05:10:47;;;;;;;15.52;9.60;;;18.60;99.90;;;;;;4993543;28;20060;-77
2023/06/25 05:13:35;;;;;;;19.45;11.07;;;18.70;99.90;;;;;;4990718;28;20050;-80
2023/06/25 05:16:21;;;;;;;15.88;9.25;;;18.80;99.90;;;;;;4992563;28;20046;-80
2023/06/25 05:19:07;;;;;;;15.35;10.00;;;18.90;99.90;;;;;;4991785;28;20133;-79
2023/06/25 05:21:53;;;;;;;16.55;9.05;;;19.00;99.90;;;;;;4990140;28;20281;-74
2023/06/25 05:24:39;;;;;;;17.80;9.85;;;19.10;99.90;;;;;;4974766;28;20422;-81
2023/06/25 05:27:25;;;;;;;17.15;8.70;;;19.20;99.90;;;;;;4992209;28;20054;-77
2023/06/25 05:30:12;;;;;;;13.70;8.23;;;19.20;99.90;;;;;;4973891;28;20050;-75
2023/06/25 05:32:58;;;;;;;13.65;8.07;;;19.40;99.90;;;;;;4991196;28;20137;-77
2023/06/25 05:35:44;;;;;;;14.35;8.77;;;19.50;99.90;;;;;;4973209;28;20051;-79
2023/06/25 05:38:30;;;;;;;15.10;8.13;;;19.50;99.90;;;;;;4992037;28;20050;-77
2023/06/25 05:41:16;;;;;;;13.60;7.85;;;19.70;99.90;;;;;;4974604;28;20116;-77
2023/06/25 05:44:02;;;;;;;14.18;8.10;;;19.80;99.90;;;;;;4991865;28;20499;-80
2023/06/25 05:46:48;;;;;;;11.20;7.53;;;20.00;99.90;;;;;;4990398;28;20054;-78
2023/06/25 05:49:35;;;;;;;14.98;7.30;;;20.10;99.90;;;;;;4990220;28;20053;-80
2023/06/25 05:52:21;;;;;;;12.93;6.63;;;20.20;99.90;;;;;;4991083;28;20525;-77
2023/06/25 05:55:07;;;;;;;10.55;6.88;;;20.30;99.90;;;;;;4973439;28;20097;-76
2023/06/25 05:57:53;;;;;;;9.90;7.13;;;20.40;99.90;;;;;;4990587;28;20113;-77
2023/06/25 06:00:40;;;;;;;14.07;5.47;;;20.60;99.90;;;;;;4991257;28;20046;-76
2023/06/25 06:03:26;;;;;;;11.60;6.13;;;20.70;99.90;;;;;;4990470;28;20057;-80
2023/06/25 06:06:12;;;;;;;8.23;5.25;;;20.80;99.90;;;;;;4989753;28;20053;-80
2023/06/25 06:08:59;;;;;;;8.98;5.18;;;21.00;99.90;;;;;;4972605;28;20108;-76
2023/06/25 06:11:45;;;;;;;9.50;5.30;;;21.10;99.90;;;;;;4976083;28;20111;-78
2023/06/25 06:14:33;;;;;;;9.07;5.38;;;21.20;99.90;;;;;;4991185;28;20046;-76
2023/06/25 06:17:19;;;;;;;8.65;5.70;;;21.40;99.90;;;;;;4989368;28;20515;-79
2023/06/25 06:20:06;;;;;;;8.80;5.53;;;21.50;99.90;;;;;;4989629;28;20133;-76
2023/06/25 06:22:52;;;;;;;10.68;5.68;;;21.60;99.90;;;;;;4990892;28;20124;-76
2023/06/25 06:25:38;;;;;;;10.32;5.15;;;21.80;99.90;;;;;;4989703;28;20050;-78
2023/06/25 06:28:24;;;;;;;10.65;6.85;;;22.00;99.90;;;;;;4976092;28;20047;-78
2023/06/25 06:31:10;;;;;;;9.15;5.18;;;22.10;99.90;;;;;;4973893;28;20058;-78
2023/06/25 06:33:56;;;;;;;9.75;6.25;;;22.20;99.90;;;;;;4973011;28;20407;-80
2023/06/25 06:36:43;;;;;;;8.90;5.68;;;22.30;99.90;;;;;;4990866;28;20495;-81
2023/06/25 06:39:29;;;;;;;10.85;5.22;;;22.40;99.90;;;;;;4989848;28;20057;-77
2023/06/25 06:42:15;;;;;;;8.90;5.47;;;22.60;99.90;;;;;;4990049;28;20050;-80
2023/06/25 06:45:02;;;;;;;8.10;5.13;;;22.80;99.90;;;;;;4989548;28;20405;-78
2023/06/25 06:47:48;;;;;;;7.20;4.15;;;22.90;99.90;;;;;;4973711;28;20093;-76
2023/06/25 06:50:34;;;;;;;9.40;5.05;;;23.10;99.90;;;;;;4975178;28;20380;-78
2023/06/25 06:53:20;;;;;;;8.10;4.53;;;23.30;99.90;;;;;;4989601;28;20109;-78
2023/06/25 06:56:06;;;;;;;8.50;4.97;;;23.40;99.90;;;;;;4972959;28;20136;-78
2023/06/25 06:58:52;;;;;;;7.65;4.68;;;23.60;99.90;;;;;;4990998;28;20054;-77
2023/06/25 07:01:38;;;;;;;8.23;5.10;;;23.60;99.90;;;;;;4972048;28;20549;-78
2023/06/25 07:04:24;;;;;;;6.53;4.63;;;23.70;99.90;;;;;;4989574;28;20131;-80
2023/06/25 07:07:10;;;;;;;8.45;4.93;;;23.70;99.90;;;;;;4958007;28;20057;-79
2023/06/25 07:09:57;;;;;;;11.07;4.47;;;23.70;99.90;;;;;;4959315;28;20054;-77
2023/06/25 07:12:43;;;;;;;9.38;5.10;;;24.00;99.90;;;;;;4990399;28;20052;-76
2023/06/25 07:15:30;;;;;;;9.27;5.35;;;24.10;99.90;;;;;;4990263;28;20057;-78
2023/06/25 07:18:16;;;;;;;10.02;5.25;;;24.30;99.90;;;;;;4958519;28;20086;-77
2023/06/25 07:21:05;;;;;;;9.60;5.65;;;24.50;99.90;;;;;;4990021;28;20766;-77
2023/06/25 07:23:54;;;;;;;11.13;5.72;;;24.70;99.90;;;;;;4991520;28;20064;-78
2023/06/25 07:26:40;;;;;;;10.18;6.10;;;24.80;99.50;;;;;;4971988;28;20050;-77
2023/06/25 07:29:28;;;;;;;8.68;4.72;;;25.00;99.20;;;;;;4972799;28;20061;-79
2023/06/25 07:32:14;;;;;;;7.75;4.88;;;25.20;99.10;;;;;;4988798;28;20517;-79
2023/06/25 07:35:00;;;;;;;10.13;6.28;;;25.30;98.90;;;;;;4988365;28;20505;-76
2023/06/25 07:37:46;;;;;;;9.15;6.03;;;25.50;98.70;;;;;;4988344;28;20116;-77
2023/06/25 07:40:32;;;;;;;8.05;5.35;;;25.50;98.20;;;;;;4971984;28;20054;-77
2023/06/25 07:43:18;;;;;;;9.88;5.80;;;25.70;98.40;;;;;;4988768;28;20650;-80
2023/06/25 07:46:04;;;;;;;10.27;5.97;;;25.80;98.30;;;;;;4990203;28;20581;-80
2023/06/25 07:48:50;;;;;;;13.00;6.88;;;26.10;98.30;;;;;;4988492;28;20046;-79
2023/06/25 07:51:36;;;;;;;17.08;7.60;;;26.20;97.90;;;;;;4989823;28;20085;-77
2023/06/25 07:54:22;;;;;;;11.63;5.45;;;26.40;97.60;;;;;;4988902;28;20057;-80
2023/06/25 07:57:09;;;;;;;10.35;6.88;;;26.50;97.70;;;;;;4973200;28;20054;-80
2023/06/25 07:59:55;;;;;;;10.85;6.97;;;26.70;97.40;;;;;;4963368;28;20090;-82
2023/06/25 08:02:41;;;;;;;10.75;7.20;;;26.90;97.10;;;;;;4975200;28;20058;-80
2023/06/25 08:05:27;;;;;;;12.57;8.15;;;27.00;97.00;;;;;;4962103;28;20050;-79
2023/06/25 08:08:13;;;;;;;10.02;7.18;;;27.10;96.50;;;;;;4977286;28;20730;-77
2023/06/25 08:10:59;;;;;;;10.75;7.35;;;27.10;96.10;;;;;;4991539;28;20062;-76
2023/06/25 08:13:45;;;;;;;9.35;6.47;;;27.20;95.90;;;;;;4991561;28;20133;-77
2023/06/25 08:16:31;;;;;;;10.35;6.45;;;27.40;96.20;;;;;;4975027;28;20558;-80
2023/06/25 08:19:18;;;;;;;11.40;6.78;;;27.70;96.30;;;;;;4991750;28;20541;-78
2023/06/25 08:22:04;;;;;;;12.60;6.55;;;27.80;95.90;;;;;;4993606;28;20117;-77
2023/06/25 08:24:50;;;;;;;12.90;7.63;;;27.90;95.70;;;;;;4962762;28;20050;-75
2023/06/25 08:27:36;;;;;;;11.25;7.20;;;28.10;95.40;;;;;;4993356;28;20054;-76
2023/06/25 08:30:23;;;;;;;8.73;6.13;;;28.20;94.90;;;;;;4974742;28;20058;-77
2023/06/25 08:33:09;;;;;;;9.30;6.90;;;28.30;95.10;;;;;;4975458;28;20109;-76
2023/06/25 08:35:56;;;;;;;9.57;7.30;;;28.60;94.80;;;;;;4992485;28;20046;-79
2023/06/25 08:38:42;;;;;;;10.02;6.70;;;28.70;94.30;;;;;;4993849;28;20057;-77
2023/06/25 08:41:29;;;;;;;10.65;6.43;;;28.70;94.00;;;;;;4974224;28;20406;-79
2023/06/25 08:44:15;;;;;;;11.75;5.97;;;28.90;94.10;;;;;;4993163;28;20058;-77
2023/06/25 08:47:03;;;;;;;8.70;6.07;;;29.10;93.80;;;;;;4990498;28;20058;-76
2023/06/25 08:49:50;;;;;;;10.43;7.10;;;29.30;93.40;;;;;;4990838;28;20077;-78
2023/06/25 08:52:40;;;;;;;10.40;6.82;;;29.30;92.90;;;;;;4975623;28;20050;-76
2023/06/25 08:55:27;;;;;;;11.80;5.65;;;29.30;92.60;;;;;;4991539;28;20406;-76
2023/06/25 08:58:13;;;;;;;9.80;5.78;;;29.40;92.80;;;;;;4992824;28;20097;-78
2023/06/25 09:00:59;;;;;;;10.10;5.72;;;29.70;92.90;;;;;;4974652;28;20438;-78
2023/06/25 09:03:45;;;;;;;8.43;6.53;;;29.80;92.70;;;;;;4965119;28;20057;-75
2023/06/25 09:06:39;;;;;;;8.63;5.97;;;29.80;91.80;;;;;;4985296;28;20054;-76
2023/06/25 09:09:25;;;;;;;9.63;6.47;;;29.90;91.80;;;;;;4990592;28;20046;-79
2023/06/25 09:12:12;;;;;;;8.88;6.25;;;30.00;91.50;;;;;;4977333;28;20058;-78
2023/06/25 09:14:58;;;;;;;7.88;5.28;;;30.00;91.20;;;;;;4992444;28;20494;-78
2023/06/25 09:17:44;;;;;;;8.63;5.57;;;30.20;91.40;;;;;;4990987;28;20042;-78
2023/06/25 09:20:31;;;;;;;7.95;5.82;;;30.40;91.10;;;;;;4993306;28;20129;-77
2023/06/25 09:23:24;;;;;;;9.38;5.18;;;30.60;90.60;;;;;;4990673;28;20414;-80
2023/06/25 09:26:11;;;;;;;9.63;6.15;;;30.50;90.20;;;;;;4990663;28;20092;-77
2023/06/25 09:28:59;;;;;;;8.23;5.22;;;30.60;90.20;;;;;;4991508;28;20050;-76
2023/06/25 09:31:46;;;;;;;9.07;4.82;;;30.90;90.20;;;;;;4991282;28;20047;-77
2023/06/25 09:34:32;;;;;;;9.43;5.03;;;31.10;90.20;;;;;;4991365;28;20161;-81
2023/06/25 09:37:20;;;;;;;11.82;5.65;;;31.30;89.60;;;;;;4991137;28;20119;-82
2023/06/25 09:40:07;;;;;;;6.82;4.78;;;31.20;89.20;;;;;;4991626;28;20105;-77
2023/06/25 09:42:57;;;;;;;9.00;5.50;;;31.40;89.10;;;;;;4977200;28;20120;-80
2023/06/25 09:45:44;;;;;;;7.35;4.72;;;31.50;87.30;;;;;;4973293;28;20065;-77
2023/06/25 09:48:31;;;;;;;7.43;5.43;;;31.50;85.60;;;;;;4974063;28;20534;-77
2023/06/25 09:51:19;;;;;;;7.10;4.28;;;31.50;84.40;;;;;;4991534;28;20439;-77
2023/06/25 09:54:08;;;;;;;11.43;5.22;;;31.70;84.90;;;;;;4990926;28;20046;-76
2023/06/25 09:56:57;;;;;;;7.53;4.53;;;31.80;83.00;;;;;;4991361;28;20556;-76
2023/06/25 09:59:43;;;;;;;7.15;4.07;;;31.70;83.30;;;;;;4991574;28;20050;-77
2023/06/25 10:02:30;;;;;;;5.60;4.22;;;31.80;83.50;;;;;;4976200;28;20094;-78
2023/06/25 10:05:16;;;;;;;7.15;3.97;;;32.20;84.80;;;;;;4975575;28;20054;-74
2023/06/25 10:08:03;;;;;;;8.38;4.55;;;32.20;83.50;;;;;;4990178;28;20410;-78
2023/06/25 10:11:00;;;;;;;6.03;4.40;;;32.30;82.10;;;;;;4973530;28;20141;-77
2023/06/25 10:13:48;;;;;;;5.80;3.65;;;32.30;81.50;;;;;;4973841;28;20079;-80
2023/06/25 10:16:34;;;;;;;7.57;4.78;;;32.30;82.00;;;;;;4975119;28;20054;-76
2023/06/25 10:19:25;;;;;;;7.68;4.00;;;32.60;83.10;;;;;;4991560;28;20120;-81
2023/06/25 10:22:13;;;;;;;7.10;4.53;;;32.60;81.60;;;;;;4990707;28;20054;-79
2023/06/25 10:24:59;;;;;;;7.68;4.47;;;32.70;79.80;;;;;;4991532;28;20082;-81
2023/06/25 10:27:45;;;;;;;5.75;3.97;;;32.40;78.00;;;;;;4973111;28;20054;-81
2023/06/25 10:30:46;;;;;;;10.20;4.93;;;32.10;78.70;;;;;;4990286;28;20050;-77
2023/06/25 10:33:32;;;;;;;8.18;4.25;;;32.20;78.50;;;;;;4990503;28;20046;-81
2023/06/25 10:36:25;;;;;;;6.28;3.92;;;32.40;80.00;;;;;;4990494;28;20459;-82
2023/06/25 10:39:11;;;;;;;6.13;3.88;;;32.90;79.30;;;;;;4974533;28;20058;-81
2023/06/25 10:42:03;;;;;;;5.78;3.97;;;33.30;78.60;;;;;;4973303;28;20117;-79
2023/06/25 10:44:49;;;;;;;7.60;4.38;;;33.70;78.10;;;;;;4990395;28;20054;-80
2023/06/25 10:47:35;;;;;;;5.65;4.20;;;33.90;77.30;;;;;;4989467;28;20061;-80
2023/06/25 10:50:21;;;;;;;6.72;4.53;;;34.00;76.80;;;;;;4988998;28;20050;-79
2023/06/25 10:53:13;;;;;;;5.43;4.15;;;33.90;75.10;;;;;;4962054;28;20137;-79
2023/06/25 10:55:59;;;;;;;6.55;3.97;;;34.00;75.80;;;;;;4990459;28;20050;-77
2023/06/25 10:58:45;;;;;;;4.95;3.58;;;34.00;75.80;;;;;;4989805;28;20042;-79
2023/06/25 11:01:35;;;;;;;6.18;3.55;;;34.30;76.00;;;;;;4989696;28;20133;-76
2023/06/25 11:04:21;;;;;;;5.78;3.78;;;34.50;77.20;;;;;;4991911;28;20047;-77
2023/06/25 11:07:10;;;;;;;6.15;3.97;;;34.60;74.90;;;;;;4972546;28;20502;-80
2023/06/25 11:09:57;;;;;;;5.90;4.05;;;34.80;74.40;;;;;;4972950;28;20450;-76
2023/06/25 11:12:43;;;;;;;6.80;3.88;;;34.40;74.00;;;;;;4972183;28;20058;-78
2023/06/25 11:15:34;;;;;;;5.93;4.00;;;34.50;74.20;;;;;;4959684;28;20505;-78
2023/06/25 11:18:21;;;;;;;8.15;4.38;;;34.70;72.20;;;;;;4990594;28;20073;-76
2023/06/25 11:21:08;;;;;;;7.45;4.00;;;35.00;72.30;;;;;;4989232;28;20046;-80
2023/06/25 11:23:54;;;;;;;7.43;3.90;;;34.90;70.70;;;;;;4989619;28;20057;-77
2023/06/25 11:26:41;;;;;;;6.13;4.22;;;35.10;72.40;;;;;;4989938;28;20501;-80
2023/06/25 11:29:39;;;;;;;7.03;4.18;;;35.40;71.70;;;;;;4977212;28;20074;-78
2023/06/25 11:32:27;;;;;;;6.63;3.67;;;35.80;71.20;;;;;;4989918;28;20042;-81
2023/06/25 11:35:15;;;;;;;9.57;5.18;;;36.20;71.60;;;;;;4993984;28;20050;-79
2023/06/25 11:38:01;;;;;;;5.78;3.42;;;36.40;69.90;;;;;;4992631;28;20046;-80
2023/06/25 11:40:52;;;;;;;7.15;3.88;;;36.50;70.40;;;;;;4993867;28;20487;-80
2023/06/25 11:43:38;;;;;;;6.75;4.30;;;36.70;69.80;;;;;;4991768;28;20522;-82
2023/06/25 11:46:25;;;;;;;6.20;4.45;;;36.80;69.60;;;;;;4976600;28;20058;-76
2023/06/25 11:49:11;;;;;;;6.30;4.15;;;36.90;68.40;;;;;;4993045;28;20061;-79
2023/06/25 11:51:58;;;;;;;6.63;3.85;;;37.00;68.50;;;;;;4975362;28;20051;-81
2023/06/25 11:54:44;;;;;;;8.00;4.47;;;37.00;67.60;;;;;;4993221;28;20057;-79
2023/06/25 11:57:30;;;;;;;5.50;4.45;;;36.90;66.40;;;;;;4991741;28;20518;-77
2023/06/25 12:00:17;;;;;;;8.85;4.75;;;36.60;66.00;;;;;;4991741;28;20058;-78
2023/06/25 12:03:03;;;;;;;8.90;4.82;;;36.20;66.50;;;;;;4978775;28;20053;-77
2023/06/25 12:05:49;;;;;;;7.70;4.22;;;36.20;67.50;;;;;;4976776;28;20061;-77
2023/06/25 12:08:35;;;;;;;6.13;3.60;;;35.80;66.40;;;;;;4976744;28;20055;-81
2023/06/25 12:11:21;;;;;;;7.40;4.22;;;36.20;66.90;;;;;;4992289;28;20054;-79
2023/06/25 12:14:08;;;;;;;5.53;4.10;;;36.50;67.20;;;;;;4975180;28;20053;-83
2023/06/25 12:16:54;;;;;;;6.28;3.90;;;36.70;66.70;;;;;;4993030;28;20406;-79
2023/06/25 12:19:41;;;;;;;7.07;4.35;;;36.50;66.50;;;;;;4975415;28;20426;-79
2023/06/25 12:22:27;;;;;;;6.25;4.22;;;36.60;64.80;;;;;;4978604;28;20442;-79
2023/06/25 12:25:13;;;;;;;9.63;6.13;;;37.00;64.20;;;;;;4991953;28;20519;-78
2023/06/25 12:28:00;;;;;;;8.20;4.63;;;37.40;68.70;;;;;;4991667;28;20058;-80
2023/06/25 12:30:46;;;;;;;11.10;4.63;;;37.50;69.70;;;;;;4976665;28;20046;-76
2023/06/25 12:33:32;;;;;;;4.40;2.95;;;36.90;69.30;;;;;;4949472;28;20097;-76
2023/06/25 12:36:18;;;;;;;10.70;3.80;;;37.00;67.80;;;;;;4993572;28;20050;-78
2023/06/25 12:39:04;;;;;;;8.93;4.75;;;37.70;67.60;;;;;;4991992;28;20057;-76
2023/06/25 12:41:50;;;;;;;6.78;5.00;;;38.10;69.50;;;;;;4991957;28;20050;-79
2023/06/25 12:44:36;;;;;;;6.00;4.60;;;38.10;67.60;;;;;;4991971;28;20065;-78
2023/06/25 12:47:22;;;;;;;5.57;4.00;;;37.90;66.90;;;;;;4993158;28;20054;-76
2023/06/25 12:50:10;;;;;;;6.68;4.15;;;37.80;68.20;;;;;;4948799;28;20494;-75
2023/06/25 12:52:56;;;;;;;6.90;4.03;;;37.90;69.00;;;;;;4975303;28;20058;-76
2023/06/25 12:55:43;;;;;;;7.22;4.85;;;37.90;69.70;;;;;;4991027;28;20154;-75
2023/06/25 12:58:29;;;;;;;7.95;4.25;;;38.10;68.60;;;;;;4975899;28;20056;-76
2023/06/25 13:01:15;;;;;;;8.68;4.45;;;37.90;68.70;;;;;;4974081;28;20109;-79
2023/06/25 13:04:01;;;;;;;10.48;3.83;;;38.30;69.20;;;;;;4993346;28;20058;-79
2023/06/25 13:06:47;;;;;;;6.47;3.97;;;38.60;69.50;;;;;;4976967;28;20058;-76
2023/06/25 13:09:33;;;;;;;6.63;4.00;;;38.80;69.40;;;;;;4992181;28;20152;-79
2023/06/25 13:12:19;;;;;;;7.88;4.00;;;39.10;68.80;;;;;;4992487;28;20101;-78
2023/06/25 13:15:06;;;;;;;7.10;4.13;;;38.90;68.20;;;;;;4990894;28;20053;-76
2023/06/25 13:17:52;;;;;;;6.88;3.60;;;39.60;68.10;;;;;;4977108;28;20507;-79
2023/06/25 13:20:38;;;;;;;6.53;4.22;;;39.80;67.60;;;;;;4990415;28;20098;-77
2023/06/25 13:23:25;;;;;;;6.65;3.78;;;40.00;66.50;;;;;;4990850;28;20050;-77
2023/06/25 13:26:11;;;;;;;6.43;4.20;;;40.20;68.00;;;;;;4973415;28;20055;-77
2023/06/25 13:28:57;;;;;;;9.18;4.47;;;40.00;66.40;;;;;;4973921;28;20137;-76
2023/06/25 13:31:43;;;;;;;6.65;3.80;;;39.50;66.60;;;;;;4990704;28;20494;-74
2023/06/25 13:34:29;;;;;;;6.65;4.20;;;39.40;67.80;;;;;;4960509;28;20059;-74
2023/06/25 13:37:15;;;;;;;5.95;3.10;;;39.20;66.30;;;;;;4974251;28;20062;-74
2023/06/25 13:40:01;;;;;;;13.18;4.55;;;39.50;66.90;;;;;;4976627;28;20085;-75
2023/06/25 13:42:47;;;;;;;6.60;4.28;;;39.30;67.30;;;;;;4977084;28;20058;-74
2023/06/25 13:45:33;;;;;;;6.63;3.90;;;39.20;67.60;;;;;;4973308;28;20046;-75
2023/06/25 13:48:19;;;;;;;7.03;3.90;;;39.40;68.60;;;;;;4990239;28;20054;-79
2023/06/25 13:51:06;;;;;;;5.10;3.75;;;39.40;68.80;;;;;;4990118;28;20039;-76
2023/06/25 13:53:52;;;;;;;7.38;3.17;;;39.60;67.40;;;;;;4991646;28;20054;-74
2023/06/25 13:56:39;;;;;;;6.65;3.63;;;39.60;66.90;;;;;;4975121;28;20050;-76
2023/06/25 13:59:25;;;;;;;5.97;3.50;;;39.50;67.70;;;;;;4991439;28;20116;-78
2023/06/25 14:02:11;;;;;;;6.03;3.85;;;39.60;68.80;;;;;;4989516;28;20066;-74
2023/06/25 14:04:57;;;;;;;6.95;3.90;;;39.80;68.00;;;;;;4972969;28;20046;-75
2023/06/25 14:07:43;;;;;;;5.88;3.60;;;40.10;67.90;;;;;;4991532;28;20061;-78
2023/06/25 14:10:29;;;;;;;6.05;3.22;;;40.40;67.90;;;;;;4991474;28;20585;-74
2023/06/25 14:13:17;;;;;;;6.97;4.03;;;40.80;66.60;;;;;;4976438;28;20050;-75
2023/06/25 14:16:04;;;;;;;6.00;3.80;;;40.60;66.70;;;;;;4991533;28;20474;-74
2023/06/25 14:18:50;;;;;;;6.50;3.08;;;40.90;65.60;;;;;;4972294;28;20095;-74
2023/06/25 14:21:36;;;;;;;8.98;4.13;;;41.20;65.10;;;;;;4973692;28;20482;-75
2023/06/25 14:24:22;;;;;;;9.48;4.38;;;41.10;64.90;;;;;;4990802;28;20050;-77